Time;durP1;ratioP1;P1;durP2;ratioP2;P2;SDS_P1;SDS_P2;PMS_P1;PMS_P2;Temp;Humidity;BMP_temperature;BMP_pressure;BME280_temperature;BME280_humidity;BME280_pressure;Samples;Min_cycle;Max_cycle;Signal;HPM_P1;HPM_P2
2022/04/30 00:00:13;;;;;;;8.18;4.50;;;;;;;12.24;50.84;101083.06;1756622;82;21174;-59
2022/04/30 00:02:42;;;;;;;7.47;3.85;;;;;;;12.23;50.91;101084.11;1756709;80;21109;-60
2022/04/30 00:05:12;;;;;;;7.05;4.15;;;;;;;12.23;51.12;101081.36;1756749;82;21150;-59
2022/04/30 00:07:42;;;;;;;7.75;4.50;;;;;;;12.21;51.09;101081.55;1756826;82;21173;-59
2022/04/30 00:10:13;;;;;;;8.70;3.72;;;;;;;12.23;51.17;101082.73;1756840;81;21150;-61
2022/04/30 00:12:42;;;;;;;6.65;4.30;;;;;;;12.24;51.25;101085.30;1756893;81;21197;-60
2022/04/30 00:15:12;;;;;;;7.55;3.50;;;;;;;12.25;51.35;101089.75;1756716;82;21142;-59
2022/04/30 00:17:42;;;;;;;5.85;3.10;;;;;;;12.24;51.41;101089.94;1756778;81;21130;-59
2022/04/30 00:20:11;;;;;;;5.95;2.80;;;;;;;12.18;51.17;101086.06;1756923;82;21130;-60
2022/04/30 00:22:42;;;;;;;6.95;3.60;;;;;;;12.15;51.26;101085.07;1756906;80;21170;-58
2022/04/30 00:25:11;;;;;;;8.68;3.72;;;;;;;12.13;51.42;101084.93;1756803;82;21173;-60
2022/04/30 00:27:41;;;;;;;6.35;3.30;;;;;;;12.12;51.65;101080.48;1756791;82;21197;-59
2022/04/30 00:30:12;;;;;;;7.87;3.80;;;;;;;12.09;52.05;101081.72;1756590;82;21173;-60
2022/04/30 00:32:42;;;;;;;8.58;3.75;;;;;;;12.08;52.37;101084.13;1642296;86;21134;-61
2022/04/30 00:35:11;;;;;;;7.12;3.67;;;;;;;12.06;52.61;101082.09;1649763;87;21106;-61
2022/04/30 00:37:41;;;;;;;7.65;3.65;;;;;;;12.05;52.65;101078.50;1664010;86;21114;-59
2022/04/30 00:40:12;;;;;;;7.58;3.90;;;;;;;12.06;53.17;101076.60;1649785;87;21214;-60
2022/04/30 00:42:42;;;;;;;9.23;3.75;;;;;;;12.09;53.41;101072.10;1664260;86;21130;-60
2022/04/30 00:45:12;;;;;;;6.17;3.45;;;;;;;12.09;53.11;101074.84;1649938;87;21138;-61
2022/04/30 00:47:42;;;;;;;9.03;4.30;;;;;;;12.11;53.11;101069.16;1633109;88;21644;-60
2022/04/30 00:50:14;;;;;;;7.80;3.50;;;;;;;12.12;52.99;101072.23;1645843;85;21623;-61
2022/04/30 00:52:44;;;;;;;10.88;4.10;;;;;;;12.08;53.13;101062.16;1643927;85;21103;-60
2022/04/30 00:55:14;;;;;;;6.53;3.65;;;;;;;12.08;53.08;101058.03;1687715;85;21167;-60
2022/04/30 00:57:44;;;;;;;8.58;4.10;;;;;;;12.08;53.46;101060.78;1687738;85;21122;-61
2022/04/30 01:00:14;;;;;;;8.30;4.10;;;;;;;12.08;53.56;101056.66;1688035;85;21166;-60
2022/04/30 01:02:50;;;;;;;7.90;3.70;;;;;;;12.07;53.58;101052.21;1686538;85;21648;-60
2022/04/30 01:05:38;;;;;;;6.17;3.70;;;;;;;12.05;53.82;101054.30;1646252;86;21197;-61
2022/04/30 01:08:07;;;;;;;6.20;3.40;;;;;;;12.02;53.96;101052.78;1649626;87;21146;-61
2022/04/30 01:10:36;;;;;;;7.45;3.90;;;;;;;12.03;53.97;101055.86;1663989;86;21180;-59
2022/04/30 01:13:07;;;;;;;6.30;3.70;;;;;;;12.03;53.92;101050.89;1649740;87;21138;-60
2022/04/30 01:15:39;;;;;;;8.93;3.85;;;;;;;12.02;53.91;101048.66;1642053;86;21968;-60
2022/04/30 01:18:13;;;;;;;8.03;3.92;;;;;;;11.99;53.85;101046.83;1649659;87;21293;-61
2022/04/30 01:20:51;;;;;;;9.90;4.12;;;;;;;11.96;54.12;101047.20;1664219;86;21161;-60
2022/04/30 01:23:20;;;;;;;7.20;3.45;;;;;;;11.95;54.35;101046.35;1628524;87;21155;-59
2022/04/30 01:25:50;;;;;;;7.10;3.55;;;;;;;11.95;54.35;101042.75;1664303;86;21577;-66
2022/04/30 01:28:19;;;;;;;7.35;3.70;;;;;;;11.91;54.41;101041.44;1650010;87;21170;-59
2022/04/30 01:30:50;;;;;;;8.30;3.80;;;;;;;11.84;54.58;101043.23;1744328;80;21170;-60
2022/04/30 01:38:58;;;;;;;7.15;3.87;;;;;;;11.80;55.63;101041.39;1621905;88;20160;-60
2022/04/30 01:41:28;;;;;;;8.63;3.70;;;;;;;11.77;55.71;101036.77;1664122;86;21286;-59
2022/04/30 01:43:58;;;;;;;7.42;3.65;;;;;;;11.78;55.70;101036.61;1649630;87;21204;-59
2022/04/30 01:46:27;;;;;;;7.58;3.52;;;;;;;11.78;56.04;101034.39;1663953;86;21240;-60
2022/04/30 01:48:56;;;;;;;7.87;4.15;;;;;;;11.75;56.08;101035.59;1649594;87;21162;-59
2022/04/30 01:51:25;;;;;;;9.23;4.25;;;;;;;11.73;56.19;101039.05;1707975;82;21192;-60
2022/04/30 01:53:56;;;;;;;7.33;4.03;;;;;;;11.68;56.62;101038.20;1770525;80;21091;-60
2022/04/30 01:56:27;;;;;;;9.75;3.65;;;;;;;11.62;56.73;101035.38;1752697;81;21225;-59
2022/04/30 01:58:59;;;;;;;7.50;3.80;;;;;;;11.60;56.87;101043.80;1774156;80;21075;-59
2022/04/30 02:01:30;;;;;;;7.05;3.45;;;;;;;11.58;56.92;101030.78;1774734;81;21549;-60
2022/04/30 02:04:02;;;;;;;8.10;3.92;;;;;;;11.58;57.08;101032.67;1774403;81;21119;-59
2022/04/30 02:06:32;;;;;;;6.85;3.60;;;;;;;11.57;57.11;101031.82;1774675;81;21094;-58
2022/04/30 02:09:02;;;;;;;8.73;3.75;;;;;;;11.56;57.24;101027.89;1774792;81;21115;-61
2022/04/30 02:11:33;;;;;;;6.28;3.40;;;;;;;11.56;57.34;101028.74;1752590;81;21083;-60
2022/04/30 02:14:02;;;;;;;8.70;3.60;;;;;;;11.54;57.61;101029.97;1774408;81;21150;-59
2022/04/30 02:16:33;;;;;;;10.80;4.37;;;;;;;11.49;57.78;101019.56;1774481;81;21154;-60
2022/04/30 02:19:03;;;;;;;7.55;3.72;;;;;;;11.48;57.95;101023.86;1774430;81;21142;-61
2022/04/30 02:21:32;;;;;;;6.87;3.40;;;;;;;11.47;58.04;101024.38;1753027;81;21164;-60
2022/04/30 02:24:03;;;;;;;6.55;3.50;;;;;;;11.45;58.20;101029.21;1774775;81;21157;-59
2022/04/30 02:26:33;;;;;;;8.75;3.60;;;;;;;11.44;58.39;101022.02;1666926;85;21646;-60
2022/04/30 02:29:02;;;;;;;7.60;3.70;;;;;;;11.41;58.56;101023.77;1667490;85;21178;-59
2022/04/30 02:31:32;;;;;;;7.87;3.67;;;;;;;11.38;58.60;101022.77;1689538;85;21142;-61
2022/04/30 02:34:02;;;;;;;7.50;3.67;;;;;;;11.35;58.68;101026.74;1689386;85;21628;-60
2022/04/30 02:36:31;;;;;;;9.03;3.52;;;;;;;11.34;58.83;101029.16;1689518;85;21229;-59
2022/04/30 02:39:00;;;;;;;8.35;3.85;;;;;;;11.32;58.86;101026.27;1689539;85;21186;-59
2022/04/30 02:41:31;;;;;;;7.00;3.65;;;;;;;11.28;59.04;101027.68;1607636;89;21158;-58
2022/04/30 02:44:03;;;;;;;6.53;4.03;;;;;;;11.28;59.08;101032.64;1625479;85;21643;-61
2022/04/30 02:46:32;;;;;;;7.58;3.90;;;;;;;11.29;58.99;101032.12;1689777;85;21142;-60
2022/04/30 02:49:01;;;;;;;9.53;4.08;;;;;;;11.30;58.86;101039.31;1689660;84;21170;-60
2022/04/30 02:51:31;;;;;;;8.40;4.58;;;;;;;11.31;58.74;101035.02;1688971;85;21163;-59
2022/04/30 02:54:01;;;;;;;9.38;4.37;;;;;;;11.32;58.58;101036.72;1687938;85;21194;-59
2022/04/30 02:56:31;;;;;;;8.93;3.90;;;;;;;11.34;58.44;101037.39;1687885;85;21598;-59
2022/04/30 03:01:48;;;;;;;8.40;4.25;;;;;;;11.42;58.13;101039.19;1780560;80;21181;-59
2022/04/30 03:04:20;;;;;;;11.03;4.40;;;;;;;11.46;57.97;101047.37;1777723;80;21095;-59
2022/04/30 03:06:51;;;;;;;8.83;4.33;;;;;;;11.47;57.95;101046.34;1780424;80;21146;-62
2022/04/30 03:09:20;;;;;;;9.98;4.45;;;;;;;11.49;58.03;101047.52;1780188;80;21150;-60
2022/04/30 03:11:49;;;;;;;8.73;4.35;;;;;;;11.47;58.23;101043.59;1780247;80;21122;-60
2022/04/30 03:14:19;;;;;;;7.20;4.05;;;;;;;11.45;58.56;101047.05;1780289;80;21166;-60
2022/04/30 03:22:25;;;;;;;5.55;3.45;;;;;;;11.35;59.06;101056.92;1757178;80;21091;-59
2022/04/30 03:24:55;;;;;;;12.65;3.90;;;;;;;11.36;59.17;101060.52;1780218;80;21063;-61
2022/04/30 03:27:25;;;;;;;7.58;3.65;;;;;;;11.35;59.25;101064.30;1780226;80;21091;-60
2022/04/30 03:29:55;;;;;;;6.90;3.98;;;;;;;11.36;59.29;101061.38;1780324;80;21107;-59
2022/04/30 03:32:25;;;;;;;9.13;4.30;;;;;;;11.39;59.24;101071.13;1780393;80;21096;-60
2022/04/30 03:34:55;;;;;;;7.47;3.80;;;;;;;11.42;59.04;101065.26;1780343;80;21122;-61
2022/04/30 03:37:24;;;;;;;6.35;3.70;;;;;;;11.40;59.10;101065.45;1780374;80;21107;-60
2022/04/30 03:39:54;;;;;;;8.25;3.83;;;;;;;11.39;59.14;101061.52;1751998;80;21075;-59
2022/04/30 03:42:23;;;;;;;7.85;4.22;;;;;;;11.40;59.01;101059.11;1780589;80;21138;-59
2022/04/30 03:44:53;;;;;;;13.65;4.40;;;;;;;11.42;59.07;101062.52;1780451;80;21083;-61
2022/04/30 03:47:23;;;;;;;7.75;4.05;;;;;;;11.43;59.17;101061.47;1780333;80;21098;-60
2022/04/30 03:49:52;;;;;;;12.00;4.22;;;;;;;11.43;59.39;101056.84;1687491;85;21170;-61
2022/04/30 03:52:22;;;;;;;10.63;4.60;;;;;;;11.48;59.75;101061.77;1687640;85;21134;-59
2022/04/30 03:54:52;;;;;;;8.43;3.75;;;;;;;11.49;60.60;101062.09;1656830;85;21178;-59
2022/04/30 03:57:22;;;;;;;9.43;3.85;;;;;;;11.50;61.17;101059.69;1654513;87;21585;-59
2022/04/30 03:59:51;;;;;;;9.18;3.98;;;;;;;11.52;61.79;101065.84;1654406;87;21605;-62
2022/04/30 04:02:21;;;;;;;7.70;4.10;;;;;;;11.52;62.12;101059.50;1654440;85;21126;-60
2022/04/30 04:04:55;;;;;;;7.95;4.33;;;;;;;11.49;62.23;101059.88;1654527;87;21126;-59
2022/04/30 04:07:24;;;;;;;7.75;4.30;;;;;;;11.47;62.73;101055.09;1674249;82;21644;-59
2022/04/30 04:09:55;;;;;;;11.00;4.60;;;;;;;11.48;62.93;101063.66;1717759;81;21118;-60
2022/04/30 04:12:24;;;;;;;10.85;4.33;;;;;;;11.50;63.44;101071.18;1746142;82;21206;-60
2022/04/30 04:17:44;;;;;;;14.43;6.25;;;;;;;11.44;64.05;101064.55;1721857;82;21170;-59
2022/04/30 04:20:17;;;;;;;11.43;5.97;;;;;;;11.37;63.67;101071.30;1746178;82;21189;-59
2022/04/30 04:22:46;;;;;;;14.73;6.00;;;;;;;11.37;63.63;101074.05;1746047;82;21174;-60
2022/04/30 04:28:03;;;;;;;;;;;;;;;11.39;63.81;101077.98;1748523;82;21174;-59
2022/04/30 04:30:34;;;;;;;16.12;6.12;;;;;;;11.41;63.71;101082.77;1746277;82;20263;-60
2022/04/30 04:33:03;;;;;;;12.05;5.85;;;;;;;11.41;63.73;101076.75;1717166;82;21170;-60
2022/04/30 04:35:34;;;;;;;11.25;5.72;;;;;;;11.47;63.71;101081.16;1746227;82;21335;-60
2022/04/30 04:38:04;;;;;;;11.35;5.78;;;;;;;11.50;64.08;101076.16;1746173;82;21142;-60
2022/04/30 04:40:35;;;;;;;13.90;5.70;;;;;;;11.51;63.96;101073.74;1717151;82;21107;-60
2022/04/30 04:43:05;;;;;;;13.08;5.60;;;;;;;11.56;63.29;101083.63;1745945;82;21170;-60
2022/04/30 04:45:38;;;;;;;9.98;5.47;;;;;;;11.60;63.50;101083.59;1717646;82;21130;-61
2022/04/30 04:48:08;;;;;;;22.17;6.53;;;;;;;11.63;63.72;101078.25;1745962;82;21221;-60
2022/04/30 04:50:39;;;;;;;9.13;4.50;;;;;;;11.62;64.02;101074.65;1746167;81;21584;-61
2022/04/30 04:53:09;;;;;;;7.15;4.20;;;;;;;11.62;63.69;101071.05;1718205;80;21182;-61
2022/04/30 04:55:39;;;;;;;8.53;4.03;;;;;;;11.64;62.74;101068.45;1756713;82;21220;-61
2022/04/30 04:58:08;;;;;;;8.60;3.90;;;;;;;11.68;62.31;101062.91;1756802;82;21220;-60
2022/04/30 05:00:37;;;;;;;8.33;3.60;;;;;;;11.71;62.30;101070.80;1727866;82;21130;-60
2022/04/30 05:03:08;;;;;;;7.78;3.60;;;;;;;11.73;61.60;101067.35;1756731;82;21210;-61
2022/04/30 05:05:38;;;;;;;6.75;3.70;;;;;;;11.79;61.53;101071.78;1756608;82;21130;-60
2022/04/30 05:08:08;;;;;;;13.28;4.97;;;;;;;11.81;60.91;101065.59;1664114;85;21133;-59
2022/04/30 05:10:37;;;;;;;11.68;5.10;;;;;;;11.85;60.15;101071.88;1649736;85;21542;-60
2022/04/30 05:13:07;;;;;;;11.97;5.75;;;;;;;11.90;59.22;101072.69;1664259;86;21157;-60
2022/04/30 05:15:39;;;;;;;15.53;7.00;;;;;;;11.94;58.91;101078.98;1649880;87;21264;-61
2022/04/30 05:18:08;;;;;;;27.07;10.55;;;;;;;11.99;57.83;101081.16;1633076;88;21169;-61
2022/04/30 05:20:39;;;;;;;45.85;16.70;;;;;;;12.03;57.10;101087.97;1633268;88;21198;-59
2022/04/30 05:23:11;;;;;;;42.23;17.10;;;;;;;12.04;56.35;101089.67;1633411;88;21222;-61
2022/04/30 05:25:41;;;;;;;41.05;14.80;;;;;;;12.03;56.30;101089.34;1633229;88;21205;-61
2022/04/30 05:28:11;;;;;;;47.20;15.53;;;;;;;12.04;55.77;101089.67;1633169;88;21903;-60
2022/04/30 05:30:41;;;;;;;46.75;17.20;;;;;;;12.03;56.00;101093.46;1633054;88;21190;-60
2022/04/30 05:33:10;;;;;;;36.88;13.05;;;;;;;12.04;55.71;101089.67;1632284;86;21218;-60
2022/04/30 05:35:43;;;;;;;28.15;10.35;;;;;;;12.06;55.50;101090.34;1649584;87;21590;-60
2022/04/30 05:38:13;;;;;;;20.85;9.05;;;;;;;12.12;55.11;101096.96;1663890;86;21659;-60
2022/04/30 05:40:43;;;;;;;22.27;9.30;;;;;;;12.14;54.56;101095.73;1649609;87;21162;-60
2022/04/30 05:43:12;;;;;;;19.20;7.97;;;;;;;12.16;54.60;101096.91;1727872;82;21166;-60
2022/04/30 05:45:41;;;;;;;19.15;7.22;;;;;;;12.20;54.71;101093.59;1756560;81;21130;-60
2022/04/30 05:48:11;;;;;;;14.83;5.72;;;;;;;12.22;54.73;101088.75;1756575;82;21417;-61
2022/04/30 05:50:42;;;;;;;14.58;5.40;;;;;;;12.28;54.52;101094.00;1664189;85;21177;-62
2022/04/30 05:53:11;;;;;;;9.83;4.72;;;;;;;12.30;54.16;101092.77;1649697;87;21118;-60
2022/04/30 05:55:42;;;;;;;11.50;4.72;;;;;;;12.31;54.20;101087.60;1664110;86;21149;-60
2022/04/30 05:58:11;;;;;;;8.03;4.17;;;;;;;12.34;54.01;101089.97;1649842;87;21183;-60
2022/04/30 06:00:40;;;;;;;11.95;4.20;;;;;;;12.38;53.56;101092.69;1664016;86;21569;-61
2022/04/30 06:03:09;;;;;;;14.23;6.37;;;;;;;12.40;53.40;101090.27;1649944;87;21205;-62
2022/04/30 06:05:39;;;;;;;9.43;4.12;;;;;;;12.43;53.04;101089.36;1664210;86;21169;-61
2022/04/30 06:08:08;;;;;;;10.40;3.70;;;;;;;12.47;52.83;101088.45;1666718;82;21129;-61
2022/04/30 06:10:38;;;;;;;7.97;3.47;;;;;;;12.52;52.52;101087.35;1720694;83;21178;-61
2022/04/30 06:13:07;;;;;;;6.37;3.05;;;;;;;12.55;52.45;101093.83;1756876;82;21197;-61
2022/04/30 06:15:38;;;;;;;11.93;3.17;;;;;;;12.61;51.87;101086.19;1756578;81;21118;-61
2022/04/30 06:18:10;;;;;;;5.00;2.50;;;;;;;12.66;51.31;101082.33;1727829;82;21197;-61
2022/04/30 06:20:39;;;;;;;10.30;3.65;;;;;;;12.76;50.80;101091.11;1727987;82;21185;-62
2022/04/30 06:23:09;;;;;;;7.92;2.83;;;;;;;12.85;49.75;101085.81;1756645;82;21182;-60
2022/04/30 06:25:38;;;;;;;6.20;2.62;;;;;;;12.92;49.10;101090.86;1756598;81;21253;-61
2022/04/30 06:28:08;;;;;;;6.58;2.85;;;;;;;12.99;48.52;101084.89;1756663;82;21147;-60
2022/04/30 06:30:39;;;;;;;4.83;2.08;;;;;;;13.06;48.22;101088.27;1756638;82;21130;-60
2022/04/30 06:33:09;;;;;;;3.90;2.40;;;;;;;13.16;47.86;101095.66;1704358;82;21616;-60
2022/04/30 06:35:39;;;;;;;6.12;2.95;;;;;;;13.21;47.63;101098.70;1756692;82;21346;-62
2022/04/30 06:38:11;;;;;;;5.47;2.62;;;;;;;13.30;47.71;101093.39;1728011;82;21623;-61
2022/04/30 06:40:41;;;;;;;120.08;9.35;;;;;;;13.38;46.92;101097.38;1756604;81;21150;-60
2022/04/30 06:43:11;;;;;;;6.47;2.42;;;;;;;13.44;46.64;101086.94;1756539;82;21122;-61
2022/04/30 06:45:42;;;;;;;6.67;2.60;;;;;;;13.49;46.45;101092.70;1756592;82;21178;-60
2022/04/30 06:48:14;;;;;;;5.37;2.40;;;;;;;13.51;45.91;101097.48;1756214;82;21604;-61
2022/04/30 06:50:45;;;;;;;5.17;2.45;;;;;;;13.52;46.30;101091.45;1756738;82;21570;-61
2022/04/30 06:58:54;;;;;;;3.25;1.70;;;;;;;13.70;44.73;101092.35;1788251;80;21693;-60
2022/04/30 07:04:01;;;;;;;4.58;1.98;;;;;;;13.90;44.21;101098.31;1788555;80;21189;-61
2022/04/30 07:06:29;;;;;;;7.65;1.98;;;;;;;14.19;43.65;101099.95;1788109;80;21063;-62
2022/04/30 07:09:03;;;;;;;4.80;2.42;;;;;;;14.47;42.77;101092.19;1731931;80;21115;-61
2022/04/30 07:11:34;;;;;;;7.75;2.05;;;;;;;14.74;41.91;101087.61;1760463;80;21272;-61
2022/04/30 07:14:03;;;;;;;7.42;2.20;;;;;;;14.94;41.40;101093.16;1788321;80;21118;-62
2022/04/30 07:16:34;;;;;;;5.85;2.20;;;;;;;15.16;40.74;101095.56;1788589;80;21098;-62
2022/04/30 07:19:09;;;;;;;4.33;1.82;;;;;;;15.45;39.97;101090.16;1788375;80;21099;-61
2022/04/30 07:21:38;;;;;;;4.12;2.37;;;;;;;15.92;39.39;101098.45;1788369;80;21552;-60
2022/04/30 07:24:08;;;;;;;5.67;2.33;;;;;;;16.31;37.99;101087.84;1788600;80;21098;-61
2022/04/30 07:26:37;;;;;;;7.22;2.40;;;;;;;16.62;37.50;101089.83;1788733;80;21091;-60
2022/04/30 07:29:06;;;;;;;7.72;3.15;;;;;;;16.98;37.38;101092.88;1788321;80;21134;-62
2022/04/30 07:31:36;;;;;;;4.58;2.60;;;;;;;17.35;35.87;101096.64;1788533;80;21212;-61
2022/04/30 07:34:05;;;;;;;6.35;2.52;;;;;;;17.70;35.75;101096.19;1788646;80;21145;-62
2022/04/30 07:36:37;;;;;;;8.00;2.87;;;;;;;18.10;35.60;101093.01;1788510;80;21141;-61
2022/04/30 07:39:06;;;;;;;4.67;2.27;;;;;;;18.33;34.83;101087.64;1788302;80;21130;-61
2022/04/30 07:41:36;;;;;;;6.85;2.40;;;;;;;18.50;33.67;101094.26;1759782;80;21580;-61
2022/04/30 07:44:05;;;;;;;13.90;3.22;;;;;;;18.71;33.81;101086.54;1788253;80;21165;-60
2022/04/30 07:46:37;;;;;;;3.45;2.17;;;;;;;18.79;32.89;101087.06;1760341;80;21125;-61
2022/04/30 07:49:06;;;;;;;6.12;2.70;;;;;;;18.84;32.90;101080.27;1788270;80;21164;-61
2022/04/30 07:51:42;;;;;;;6.75;3.22;;;;;;;19.03;33.48;101076.06;1759559;80;21098;-61
2022/04/30 07:54:10;;;;;;;4.47;2.77;;;;;;;19.29;33.08;101075.65;1783396;80;21129;-61
2022/04/30 07:56:38;;;;;;;4.37;2.45;;;;;;;19.46;33.10;101078.57;1756615;82;21149;-63
2022/04/30 07:59:08;;;;;;;5.30;2.95;;;;;;;19.65;32.07;101074.66;1756472;82;21557;-61
2022/04/30 08:01:38;;;;;;;8.90;2.85;;;;;;;19.80;32.10;101071.39;1755957;80;21542;-67
2022/04/30 08:04:07;;;;;;;6.45;3.22;;;;;;;19.92;31.80;101072.23;1751272;80;21145;-61
2022/04/30 08:06:37;;;;;;;7.70;3.65;;;;;;;20.05;31.14;101072.52;1751760;81;21715;-62
2022/04/30 08:09:07;;;;;;;8.90;4.28;;;;;;;20.02;31.24;101077.19;1751575;80;21233;-61
2022/04/30 08:11:37;;;;;;;11.60;5.40;;;;;;;20.05;31.94;101073.38;1722603;82;21262;-63
2022/04/30 08:14:08;;;;;;;15.28;6.90;;;;;;;20.15;32.03;101069.97;1751617;82;21165;-60
2022/04/30 08:16:39;;;;;;;16.40;6.85;;;;;;;20.30;32.50;101068.94;1752019;82;21161;-61
2022/04/30 08:19:08;;;;;;;13.78;7.28;;;;;;;20.55;32.31;101065.87;1721927;82;21189;-60
2022/04/30 08:21:39;;;;;;;16.32;7.92;;;;;;;20.60;32.04;101062.34;1751640;82;21137;-63
2022/04/30 08:24:11;;;;;;;13.00;7.15;;;;;;;20.64;32.67;101065.77;1747479;80;21098;-61
2022/04/30 08:26:43;;;;;;;16.30;7.45;;;;;;;20.58;33.55;101061.20;1752050;81;21133;-60
2022/04/30 08:29:13;;;;;;;11.18;5.80;;;;;;;20.61;33.61;101059.31;1751782;82;21152;-60
2022/04/30 08:31:43;;;;;;;9.88;4.90;;;;;;;20.61;33.63;101056.52;1722155;82;21130;-60
2022/04/30 08:34:12;;;;;;;7.40;4.17;;;;;;;20.67;33.29;101057.47;1751600;80;21126;-60
2022/04/30 08:36:41;;;;;;;8.88;4.05;;;;;;;20.89;33.09;101050.13;1740106;79;21131;-60
2022/04/30 08:39:11;;;;;;;9.00;3.62;;;;;;;20.94;32.80;101046.05;1754394;81;21569;-60
2022/04/30 08:41:42;;;;;;;5.83;3.30;;;;;;;20.77;32.20;101052.94;1731855;83;21119;-59
2022/04/30 08:44:15;;;;;;;4.47;2.70;;;;;;;20.57;32.27;101047.83;1737044;81;21123;-60
2022/04/30 08:46:46;;;;;;;6.97;3.27;;;;;;;20.52;32.88;101051.05;1758109;80;21158;-60
2022/04/30 08:49:15;;;;;;;5.00;2.70;;;;;;;20.43;33.29;101053.38;1724949;83;21157;-59
2022/04/30 08:51:45;;;;;;;4.00;2.55;;;;;;;20.42;32.92;101048.06;1737371;81;21180;-58
2022/04/30 08:54:15;;;;;;;6.60;2.80;;;;;;;20.36;33.10;101058.21;1696571;83;21128;-61
2022/04/30 08:56:56;;;;;;;6.92;3.05;;;;;;;20.05;33.56;101055.28;1718366;83;21163;-60
2022/04/30 08:59:25;;;;;;;3.98;2.80;;;;;;;19.79;34.23;101051.63;1708083;83;21622;-61
2022/04/30 09:01:58;;;;;;;5.40;3.30;;;;;;;19.64;34.53;101049.34;1707713;83;21891;-60
2022/04/30 09:04:29;;;;;;;6.67;2.77;;;;;;;19.55;34.51;101055.80;1728496;82;21590;-63
2022/04/30 09:07:00;;;;;;;4.55;2.30;;;;;;;19.41;34.73;101042.31;1673758;86;21564;-63
2022/04/30 09:09:30;;;;;;;5.12;2.60;;;;;;;19.31;34.05;101035.42;1681383;84;21198;-62
2022/04/30 09:12:09;;;;;;;5.75;2.42;;;;;;;19.29;34.04;101039.52;1713414;84;21158;-62
2022/04/30 09:14:40;;;;;;;6.92;3.15;;;;;;;19.23;33.96;101046.04;1678530;84;21158;-61
2022/04/30 09:17:14;;;;;;;4.28;2.40;;;;;;;19.04;33.34;101042.50;1713160;84;21267;-63
2022/04/30 09:19:48;;;;;;;3.92;2.17;;;;;;;18.85;33.03;101042.23;1712953;84;21130;-61
2022/04/30 09:22:30;;;;;;;14.20;5.00;;;;;;;18.73;32.99;101035.80;1713014;84;21621;-62
2022/04/30 09:25:01;;;;;;;5.28;3.08;;;;;;;18.54;33.05;101034.97;1604287;89;21237;-60
2022/04/30 09:27:32;;;;;;;3.70;2.00;;;;;;;18.35;32.90;101034.16;1601180;89;21221;-61
2022/04/30 09:30:05;;;;;;;23.07;8.10;;;;;;;18.23;33.26;101027.70;1604394;89;21141;-62
2022/04/30 09:32:34;;;;;;;5.00;2.85;;;;;;;18.26;33.50;101029.47;1619065;86;21213;-62
2022/04/30 09:37:56;;;;;;;5.17;1.98;;;;;;;18.43;33.59;101022.73;1656969;86;21154;-61
2022/04/30 09:40:26;;;;;;;4.03;2.02;;;;;;;18.50;32.90;101027.64;1656613;86;21238;-62
2022/04/30 09:42:56;;;;;;;6.40;2.58;;;;;;;18.51;32.76;101023.80;1705819;81;21158;-61
2022/04/30 09:45:29;;;;;;;2.47;1.90;;;;;;;18.43;32.36;101029.66;1782280;80;21160;-59
2022/04/30 09:48:01;;;;;;;14.85;10.90;;;;;;;18.30;32.56;101025.69;1782793;80;21152;-60
2022/04/30 09:56:09;;;;;;;3.15;1.62;;;;;;;17.77;31.51;101044.30;1778317;79;21139;-61
2022/04/30 09:58:42;;;;;;;3.45;1.65;;;;;;;17.59;30.85;101039.55;1811845;79;21559;-61
2022/04/30 10:01:13;;;;;;;10.40;2.10;;;;;;;17.40;30.94;101033.63;1781300;79;21142;-61
2022/04/30 10:03:42;;;;;;;5.17;1.80;;;;;;;17.25;30.73;101035.90;1780121;79;21142;-60
2022/04/30 10:06:12;;;;;;;7.72;3.22;;;;;;;17.10;31.43;101042.62;1763714;80;21151;-60
2022/04/30 10:08:41;;;;;;;5.30;1.98;;;;;;;17.02;31.04;101038.75;1699203;84;21554;-60
2022/04/30 10:11:34;;;;;;;4.55;1.90;;;;;;;16.95;31.06;101031.56;1699307;83;21139;-59
2022/04/30 10:14:18;;;;;;;3.52;1.57;;;;;;;16.90;30.74;101029.97;1699263;84;21159;-59
2022/04/30 10:17:10;;;;;;;12.98;2.55;;;;;;;16.81;30.42;101039.08;1699624;84;21139;-60
2022/04/30 10:19:21;;;;;;;3.10;1.60;;;;;;;16.63;30.98;101035.65;1673294;84;21170;-61
2022/04/30 10:22:11;;;;;;;2.67;1.37;;;;;;;16.62;31.47;101035.88;1676822;84;21178;-60
2022/04/30 10:24:43;;;;;;;3.50;1.65;;;;;;;16.61;30.70;101033.64;1623646;84;21194;-60
2022/04/30 10:27:12;;;;;;;4.85;1.60;;;;;;;16.59;31.07;101028.86;1580113;90;21720;-60
2022/04/30 10:29:59;;;;;;;3.35;1.80;;;;;;;16.69;30.66;101030.64;1600332;90;21165;-60
2022/04/30 10:32:33;;;;;;;2.80;1.93;;;;;;;16.74;30.40;101037.74;1615806;84;21202;-61
2022/04/30 10:35:05;;;;;;;5.87;1.70;;;;;;;16.69;30.35;101044.48;1675821;84;21141;-60
2022/04/30 10:37:38;;;;;;;3.72;1.37;;;;;;;16.64;30.07;101044.27;1677078;84;21178;-61
2022/04/30 10:40:09;;;;;;;2.45;1.30;;;;;;;16.60;29.99;101035.25;1699331;84;21139;-59
2022/04/30 10:42:45;;;;;;;6.28;1.40;;;;;;;16.54;30.43;101038.36;1675999;84;21131;-58
2022/04/30 10:45:17;;;;;;;2.98;1.57;;;;;;;16.52;30.28;101043.27;1664953;85;21208;-58
2022/04/30 10:47:52;;;;;;;6.22;1.50;;;;;;;16.42;30.92;101042.90;1685513;85;21126;-61
2022/04/30 10:50:22;;;;;;;4.00;1.42;;;;;;;16.39;30.77;101047.48;1662081;85;21046;-61
2022/04/30 10:52:51;;;;;;;4.12;1.70;;;;;;;16.31;30.91;101041.67;1772710;80;21632;-60
2022/04/30 10:55:22;;;;;;;6.28;3.30;;;;;;;16.30;31.06;101042.73;1751230;80;21108;-59
2022/04/30 10:57:53;;;;;;;29.12;22.52;;;;;;;16.30;30.82;101039.97;1784572;80;21041;-60
2022/04/30 11:00:22;;;;;;;9.03;5.40;;;;;;;16.30;30.55;101040.52;1784402;80;21586;-61
2022/04/30 11:02:53;;;;;;;3.72;2.40;;;;;;;16.27;30.71;101038.19;1784440;80;21017;-61
2022/04/30 11:05:24;;;;;;;5.30;2.50;;;;;;;16.27;30.82;101039.56;1784870;80;21032;-59
2022/04/30 11:07:53;;;;;;;2.15;1.47;;;;;;;16.28;30.89;101032.43;1784899;78;21030;-59
2022/04/30 11:10:22;;;;;;;3.75;1.50;;;;;;;16.30;30.78;101039.12;1784754;80;21146;-59
2022/04/30 11:13:06;;;;;;;14.98;9.78;;;;;;;16.26;30.96;101035.95;1755226;80;21006;-60
2022/04/30 11:15:36;;;;;;;4.80;2.95;;;;;;;16.27;31.67;101040.95;1817863;78;21003;-59
2022/04/30 11:18:07;;;;;;;3.37;1.90;;;;;;;16.24;31.65;101033.06;1799174;78;21011;-62
2022/04/30 11:20:37;;;;;;;6.97;2.77;;;;;;;16.23;32.04;101028.59;1766635;79;20997;-64
2022/04/30 11:23:08;;;;;;;7.15;2.62;;;;;;;16.23;32.14;101032.21;1726472;82;21059;-62
2022/04/30 11:25:39;;;;;;;3.92;2.00;;;;;;;16.24;32.41;101028.91;1706279;82;21018;-60
2022/04/30 11:28:10;;;;;;;4.58;1.40;;;;;;;16.28;32.32;101035.20;1660982;84;21026;-59
2022/04/30 11:30:43;;;;;;;2.95;1.50;;;;;;;16.27;32.14;101028.50;1706406;84;21050;-60
2022/04/30 11:33:12;;;;;;;4.10;1.50;;;;;;;16.20;32.20;101022.12;1706480;84;21002;-63
2022/04/30 11:35:41;;;;;;;6.08;1.70;;;;;;;16.19;32.50;101022.66;1706504;84;21112;-61
2022/04/30 11:38:11;;;;;;;4.55;1.60;;;;;;;16.18;32.50;101021.81;1706341;84;21030;-59
2022/04/30 11:40:42;;;;;;;3.95;1.57;;;;;;;16.25;32.03;101016.78;1706575;83;21067;-60
2022/04/30 11:43:13;;;;;;;3.02;1.25;;;;;;;16.28;31.57;101021.91;1660788;84;21486;-63
2022/04/30 11:45:45;;;;;;;2.00;1.40;;;;;;;16.22;31.93;101014.45;1706583;84;21039;-63
2022/04/30 11:48:15;;;;;;;5.12;1.75;;;;;;;16.16;31.71;101017.03;1763420;80;21073;-61
2022/04/30 11:50:47;;;;;;;4.75;1.30;;;;;;;16.15;32.13;101022.25;1717655;83;21070;-60
2022/04/30 11:53:14;;;;;;;3.75;1.40;;;;;;;16.21;32.00;101014.99;1784752;80;20999;-61
2022/04/30 11:55:43;;;;;;;75.85;51.50;;;;;;;16.23;32.07;101014.77;1779238;80;21043;-60
2022/04/30 11:58:13;;;;;;;22.60;15.90;;;;;;;16.30;32.22;101009.55;1739501;81;21035;-61
2022/04/30 12:00:46;;;;;;;7.15;2.70;;;;;;;16.33;31.83;101004.11;1766837;81;21255;-60
2022/04/30 12:03:19;;;;;;;3.05;1.47;;;;;;;16.29;31.68;101002.33;1740068;81;21048;-61
2022/04/30 12:05:52;;;;;;;3.40;1.50;;;;;;;16.23;31.75;100999.56;1694157;84;21072;-60
2022/04/30 12:08:28;;;;;;;4.15;1.70;;;;;;;16.20;31.80;101000.00;1767221;80;21044;-59
2022/04/30 12:10:57;;;;;;;6.03;2.50;;;;;;;16.22;31.99;101001.48;1739434;80;21109;-59
2022/04/30 12:13:28;;;;;;;7.33;1.37;;;;;;;16.27;31.68;100989.25;1767398;81;21451;-60
2022/04/30 12:16:05;;;;;;;2.20;1.42;;;;;;;16.31;32.13;100994.66;1767355;80;21107;-60